• Join FlightAware (Why Join?)
  • Login
  • US Flag 
08:22AM EDT


 

Airport Tracker/Info


-or-


 

Live Flight TrackerFlight Track Log ✈ THY2256 ✈ 04-Jul-2013 ✈ LTBA / IST - LTAK

Flight Track Log - Related Links

Times and Time Zones

All times are in EDT time to prevent confusion due to time zone crossing. See the THY2256 flight status page for this flight to view local times or setup timezone preferences in your user account.

Time Position Orientation Groundspeed Altitude Reporting Facility
EDT Latitude Longitude Course Direction KTS MPH feet Rate Location/Type
05:30PM 40.4041 29.8760 125° Southeast  Level Estimated
05:31PM 40.3399 29.9921 126° Southeast  Level Estimated
05:32PM 40.2755 30.1080 126° Southeast  Level Estimated
05:33PM 40.2111 30.2236 126° Southeast  Level Estimated
05:34PM 40.1465 30.3391 126° Southeast  Level Estimated
05:35PM 40.0818 30.4543 126° Southeast  Level Estimated
05:36PM 40.0170 30.5693 126° Southeast  Level Estimated
05:37PM 39.9521 30.6840 126° Southeast  Level Estimated
05:38PM 39.8871 30.7986 126° Southeast  Level Estimated
05:39PM 39.8219 30.9129 127° Southeast  Level Estimated
05:40PM 39.7567 31.0271 127° Southeast  Level Estimated
05:41PM 39.6913 31.1410 127° Southeast  Level Estimated
05:42PM 39.6258 31.2547 127° Southeast  Level Estimated
05:43PM 39.5602 31.3682 127° Southeast  Level Estimated
05:44PM 39.4945 31.4814 127° Southeast  Level Estimated
05:45PM 39.4287 31.5945 127° Southeast  Level Estimated
05:46PM 39.3628 31.7073 127° Southeast  Level Estimated
05:47PM 39.2968 31.8199 127° Southeast  Level Estimated
05:48PM 39.2306 31.9323 127° Southeast  Level Estimated
05:49PM 39.1644 32.0445 127° Southeast  Level Estimated
05:50PM 39.0980 32.1565 127° Southeast  Level Estimated
05:51PM 39.0316 32.2683 127° Southeast  Level Estimated
05:52PM 38.9650 32.3799 127° Southeast  Level Estimated
05:53PM 38.8984 32.4912 128° Southeast  Level Estimated
05:54PM 38.8316 32.6024 128° Southeast  Level Estimated
05:55PM 38.7647 32.7133 128° Southeast  Level Estimated
05:56PM 38.6977 32.8241 128° Southeast  Level Estimated
05:57PM 38.6306 32.9346 128° Southeast  Level Estimated
05:58PM 38.5634 33.0449 128° Southeast  Level Estimated
05:59PM 38.4962 33.1550 128° Southeast  Level Estimated
06:00PM 38.4287 33.2649 128° Southeast  Level Estimated
06:01PM 38.3613 33.3746 128° Southeast  Level Estimated
06:02PM 38.2937 33.4841 128° Southeast  Level Estimated
06:03PM 38.2259 33.5934 128° Southeast  Level Estimated
06:04PM 38.1581 33.7025 128° Southeast  Level Estimated
06:05PM 38.0902 33.8114 128° Southeast  Level Estimated
06:06PM 38.0222 33.9201 128° Southeast  Level Estimated
06:07PM 37.9541 34.0285 129° Southeast  Level Estimated
06:08PM 37.8859 34.1368 129° Southeast  Level Estimated
06:09PM 37.8176 34.2449 129° Southeast  Level Estimated
06:10PM 37.7492 34.3528 129° Southeast  Level Estimated
06:11PM 37.6807 34.4604 129° Southeast  Level Estimated
06:12PM 37.6121 34.5679 129° Southeast  Level Estimated
06:13PM 37.5434 34.6752 129° Southeast  Level Estimated
06:14PM 37.4746 34.7823 129° Southeast  Level Estimated
06:15PM 37.4057 34.8892 129° Southeast  Level Estimated
06:16PM 37.3367 34.9959 129° Southeast  Level Estimated
06:17PM 37.2677 35.1024 129° Southeast  Level Estimated
06:18PM 37.1985 35.2087 129° Southeast  Level Estimated
06:19PM 37.1292 35.3148 129° Southeast  Level Estimated
06:20PM 37.0598 35.4207 129° Southeast  Level Estimated
06:21PM 36.9904 35.5264 129° Southeast  Level Estimated
06:22PM 36.9208 35.6320 129° Southeast  Level Estimated
06:23PM 36.8512 35.7373 130° Southeast  Level Estimated
06:24PM 36.7814 35.8424 130° Southeast  Level Estimated
06:25PM 36.7116 35.9474 130° Southeast  Level Estimated
06:26PM 36.6417 36.0521 130° Southeast  Level Estimated
06:27PM 36.5735 36.1540 130° Southeast  Level Estimated
06:28PM 36.5735 36.1540 North  Level Estimated
06:29PM 36.5735 36.1540 North  Level Estimated
06:30PM 36.5735 36.1540 North  Level Estimated
06:31PM 36.5735 36.1540 North  Level Estimated
06:32PM 36.5735 36.1540 North  Level Estimated
06:33PM 36.5735 36.1540 North  Level Estimated
06:34PM 36.5735 36.1540 North  Level Estimated
06:35PM 36.5735 36.1540 North  Level Estimated
06:36PM 36.5735 36.1540 North  Level Estimated
06:37PM 36.5735 36.1540 North  Level Estimated
06:38PM 36.5735 36.1540 North  Level Estimated
06:39PM 36.5735 36.1540 North  Level Estimated
06:40PM 36.5735 36.1540 North  Level Estimated
06:41PM 36.5735 36.1540 North  Level Estimated
06:42PM 36.5735 36.1540 North  Level Estimated
06:43PM 36.5735 36.1540 North  Level Estimated